Oosterschelde — PGNP — position and weather

sailwx.info

Track history (hours):
 
Tides and Currents Weather Stations Pressure Air Temp Water Temp Dewpoint Dewpoint Depression Visibility Wind Speed Wind Dir Waves Ship Positions

Oosterschelde (Netherlands)

Ship's website: http://www.oosterschelde.nl/indexuk.htm

Last reported at 2019-Oct-17 16:29 UTC. Time now 2019-Oct-17 16:35 UTC.
Position N 51°55' E 004°29'.

Length 49 m; draft 2.9 m.

Type: Sailing vessel. MMSI: 246010985.

Date/timePositionNaut miles runAvg speedWind from/ knotsBaromVisibWave heightAir tempDewpointWater temp
2019-Oct-17 16:29N 51°55' E 004°29'0 0.0
2019-Oct-17 15:59N 51°55' E 004°29'0 0.0
2019-Oct-17 15:29N 51°55' E 004°29'0 0.0
2019-Oct-17 14:59N 51°55' E 004°29'0 0.0
2019-Oct-17 14:29N 51°55' E 004°29'0 0.0
2019-Oct-17 13:59N 51°55' E 004°29'0 0.0
2019-Oct-17 13:29N 51°55' E 004°29'0 0.0
2019-Oct-17 12:59N 51°55' E 004°29'0 0.0
2019-Oct-17 12:29N 51°55' E 004°29'0 0.0
2019-Oct-17 11:59N 51°55' E 004°29'0 0.0
2019-Oct-17 11:29N 51°55' E 004°29'0 0.0
2019-Oct-17 10:59N 51°55' E 004°29'0 0.0
2019-Oct-17 10:29N 51°55' E 004°29'0 0.0
2019-Oct-17 09:56N 51°55' E 004°29'0 0.0
2019-Oct-17 09:29N 51°55' E 004°29'0 0.0
2019-Oct-17 08:59N 51°55' E 004°29'0 0.0
2019-Oct-17 08:29N 51°55' E 004°29'0 0.0
2019-Oct-17 07:59N 51°55' E 004°29'0 0.0
2019-Oct-17 07:29N 51°55' E 004°29'0 0.0
2019-Oct-17 06:59N 51°55' E 004°29'0 0.0
2019-Oct-17 06:29N 51°55' E 004°29'0 0.0
2019-Oct-17 05:59N 51°55' E 004°29'0 0.0
2019-Oct-17 05:29N 51°55' E 004°29'0 0.0
2019-Oct-17 04:59N 51°55' E 004°29'0 0.0
2019-Oct-17 04:29N 51°55' E 004°29'0 0.0
2019-Oct-17 03:59N 51°55' E 004°29'0 0.0
2019-Oct-17 03:29N 51°55' E 004°29'0 0.0
2019-Oct-17 02:59N 51°55' E 004°29'0 0.0
2019-Oct-17 02:29N 51°55' E 004°29'0 0.0
2019-Oct-17 01:59N 51°55' E 004°29'0 0.0
2019-Oct-17 01:29N 51°55' E 004°29'0 0.0
2019-Oct-17 00:59N 51°55' E 004°29'0 0.0
2019-Oct-17 00:29N 51°55' E 004°29'0 0.0
2019-Oct-16 23:59N 51°55' E 004°29'0 0.0
2019-Oct-16 23:29N 51°55' E 004°29'0 0.0
2019-Oct-16 22:59N 51°55' E 004°29'0 0.0
2019-Oct-16 22:29N 51°55' E 004°29'0 0.0
2019-Oct-16 21:59N 51°55' E 004°29'0 0.0
2019-Oct-16 21:29N 51°55' E 004°29'0 0.0
2019-Oct-16 20:59N 51°55' E 004°29'0 0.0
2019-Oct-16 20:29N 51°55' E 004°29'0 0.0
2019-Oct-16 19:59N 51°55' E 004°29'0 0.0
2019-Oct-16 19:29N 51°55' E 004°29'0 0.0
2019-Oct-16 18:59N 51°55' E 004°29'0 0.0
2019-Oct-16 18:29N 51°55' E 004°29'0 0.0
2019-Oct-16 17:56N 51°55' E 004°29'0 0.1
2019-Oct-16 17:31N 51°55' E 004°29'0 0.9
2019-Oct-16 17:00N 51°54' E 004°29'0 0.2
2019-Oct-16 16:28N 51°54' E 004°29'0 0.0
2019-Oct-16 15:58N 51°54' E 004°29'0 0.0
2019-Oct-16 15:28N 51°54' E 004°29'0 0.0
2019-Oct-16 14:58N 51°54' E 004°29'0 0.0
2019-Oct-16 14:28N 51°54' E 004°29'1 3.1
2019-Oct-16 14:00N 51°54' E 004°27'4 7.3
2019-Oct-16 13:30N 51°54' E 004°21'3 6.7
2019-Oct-16 13:01N 51°54' E 004°16'3 6.0
2019-Oct-16 12:30N 51°56' E 004°12'3 5.6
2019-Oct-16 12:00N 51°58' E 004°08'3 5.2
2019-Oct-16 11:31N 51°59' E 004°04'3 5.4
2019-Oct-16 11:00N 51°60' E 004°00'1 1.9
2019-Oct-16 10:30N 51°59' E 003°59'2 4.5
2019-Oct-16 10:00N 51°58' E 003°55'4 7.2
2019-Oct-16 09:30N 51°55' E 003°52'3 6.9
2019-Oct-16 09:00N 51°52' E 003°53'4 7.1
2019-Oct-16 08:30N 51°51' E 003°58'3 5.1
2019-Oct-16 08:00N 51°50' E 004°02'1 1.2
2019-Oct-16 07:28N 51°49' E 004°02'0 0.4
2019-Oct-16 06:58N 51°49' E 004°02'0 0.0
2019-Oct-16 06:28N 51°49' E 004°02'0 0.0
2019-Oct-16 05:58N 51°49' E 004°02'0 0.0
2019-Oct-16 05:28N 51°49' E 004°02'0 0.0
2019-Oct-16 04:58N 51°49' E 004°02'0 0.0
2019-Oct-16 04:28N 51°49' E 004°02'0 0.0
2019-Oct-16 03:58N 51°49' E 004°02'0 0.0
2019-Oct-16 03:28N 51°49' E 004°02'0 0.0
2019-Oct-16 02:55N 51°49' E 004°02'0 0.0
2019-Oct-16 02:28N 51°49' E 004°02'0 0.0
2019-Oct-16 01:58N 51°49' E 004°02'0 0.0
2019-Oct-16 01:28N 51°49' E 004°02'0 0.0
2019-Oct-16 00:58N 51°49' E 004°02'0 0.0
2019-Oct-16 00:28N 51°49' E 004°02'0 0.0
2019-Oct-15 23:58N 51°49' E 004°02'0 0.0
2019-Oct-15 23:28N 51°49' E 004°02'0 0.0
2019-Oct-15 22:49N 51°49' E 004°02'0 0.0
2019-Oct-15 22:25N 51°49' E 004°02'0 0.0
2019-Oct-15 21:55N 51°49' E 004°02'0 0.0
2019-Oct-15 21:28N 51°49' E 004°02'0 0.0
2019-Oct-15 20:58N 51°49' E 004°02'0 0.0
2019-Oct-15 20:28N 51°49' E 004°02'0 0.0
2019-Oct-15 19:58N 51°49' E 004°02'0 0.0
2019-Oct-15 19:25N 51°49' E 004°02'0 0.0
2019-Oct-15 18:58N 51°49' E 004°02'0 0.0
2019-Oct-15 18:25N 51°49' E 004°02'0 0.0
2019-Oct-15 17:52N 51°49' E 004°02'0 0.0
2019-Oct-15 17:22N 51°49' E 004°02'0 0.0
2019-Oct-15 16:58N 51°49' E 004°02'0 0.0
2019-Oct-15 16:28N 51°49' E 004°02'0 0.0
2019-Oct-15 15:55N 51°49' E 004°02'0 0.0
2019-Oct-15 15:28N 51°49' E 004°02'0 0.0
2019-Oct-15 14:58N 51°49' E 004°02'0 0.0
2019-Oct-15 14:25N 51°49' E 004°02'0 0.0
2019-Oct-15 13:58N 51°49' E 004°02'0 0.0
2019-Oct-15 13:28N 51°49' E 004°02'0 0.0
2019-Oct-15 12:58N 51°49' E 004°02'0 0.0
2019-Oct-15 12:28N 51°49' E 004°02'0 0.0
2019-Oct-15 11:58N 51°49' E 004°02'0 0.0
2019-Oct-15 11:25N 51°49' E 004°02'0 0.0
2019-Oct-15 10:55N 51°49' E 004°02'0 0.0
2019-Oct-15 10:28N 51°49' E 004°02'0 0.0
2019-Oct-15 09:58N 51°49' E 004°02'0 0.0
2019-Oct-15 09:28N 51°49' E 004°02'0 0.0
2019-Oct-15 08:58N 51°49' E 004°02'0 0.0
2019-Oct-15 08:28N 51°49' E 004°02'0 0.0
2019-Oct-15 07:55N 51°49' E 004°02'0 0.0
2019-Oct-15 07:28N 51°49' E 004°02'0 0.0
2019-Oct-15 06:58N 51°49' E 004°02'0 0.0
2019-Oct-15 06:25N 51°49' E 004°02'0 0.0
2019-Oct-15 05:55N 51°49' E 004°02'0 0.0
2019-Oct-15 05:28N 51°49' E 004°02'0 0.2
2019-Oct-15 04:58N 51°49' E 004°02'0 0.0
2019-Oct-15 04:28N 51°49' E 004°02'0 0.0
2019-Oct-15 03:58N 51°49' E 004°02'0 0.0
2019-Oct-15 03:25N 51°49' E 004°02'0 0.0
2019-Oct-15 02:58N 51°49' E 004°02'0 0.0
2019-Oct-15 02:25N 51°49' E 004°02'0 0.0
2019-Oct-15 01:58N 51°49' E 004°02'0 0.0
2019-Oct-15 01:25N 51°49' E 004°02'0 0.0
2019-Oct-15 00:58N 51°49' E 004°02'0 0.0
2019-Oct-15 00:28N 51°49' E 004°02'0 0.0
2019-Oct-14 23:55N 51°49' E 004°02'0 0.0
2019-Oct-14 23:28N 51°49' E 004°02'0 0.0
2019-Oct-14 22:58N 51°49' E 004°02'0 0.0
2019-Oct-14 22:28N 51°49' E 004°02'0 0.0
2019-Oct-14 21:49N 51°49' E 004°02'0 0.0
2019-Oct-14 21:28N 51°49' E 004°02'0 0.0
2019-Oct-14 20:58N 51°49' E 004°02'0 0.0
2019-Oct-14 20:28N 51°49' E 004°02'0 0.0
2019-Oct-14 19:55N 51°49' E 004°02'0 0.0
2019-Oct-14 19:25N 51°49' E 004°02'0 0.0
2019-Oct-14 18:55N 51°49' E 004°02'0 0.0
2019-Oct-14 18:28N 51°49' E 004°02'0 0.0
2019-Oct-14 17:58N 51°49' E 004°02'0 0.0
2019-Oct-14 17:28N 51°49' E 004°02'0 0.0
2019-Oct-14 16:55N 51°49' E 004°02'0 0.0
2019-Oct-14 16:25N 51°49' E 004°02'0 0.0
2019-Oct-14 15:58N 51°49' E 004°02'0 0.0
2019-Oct-14 15:28N 51°49' E 004°02'0 0.0
2019-Oct-14 14:58N 51°49' E 004°02'0 0.0
2019-Oct-14 14:22N 51°49' E 004°02'0 0.0
2019-Oct-14 13:58N 51°49' E 004°02'0 0.0
2019-Oct-14 13:22N 51°49' E 004°02'0 0.0
2019-Oct-14 12:58N 51°49' E 004°02'0 0.0
2019-Oct-14 12:19N 51°49' E 004°02'0 0.0
2019-Oct-14 12:00N 51°49' E 004°02'1 1.0
2019-Oct-14 11:31N 51°49' E 004°03'0 0.8
2019-Oct-14 11:00N 51°49' E 004°03'0 0.0
2019-Oct-14 10:15N 51°49' E 004°03'0 0.0
2019-Oct-14 10:00N 51°49' E 004°03'0 0.0
2019-Oct-14 09:27N 51°49' E 004°03'0 0.0
2019-Oct-14 09:00N 51°49' E 004°03'0 0.0
2019-Oct-14 08:30N 51°49' E 004°03'0 0.0
2019-Oct-14 08:00N 51°49' E 004°03'0 0.0
2019-Oct-14 07:30N 51°49' E 004°03'0 0.0
2019-Oct-14 06:57N 51°49' E 004°03'0 0.0
2019-Oct-14 06:30N 51°49' E 004°03'0 0.0
2019-Oct-14 06:00N 51°49' E 004°03'0 0.0
2019-Oct-14 05:30N 51°49' E 004°03'0 0.0
2019-Oct-14 05:00N 51°49' E 004°03'0 0.0
2019-Oct-14 04:30N 51°49' E 004°03'0 0.0
2019-Oct-14 04:00N 51°49' E 004°03'0 0.0
2019-Oct-14 03:27N 51°49' E 004°03'0 0.0
2019-Oct-14 03:00N 51°49' E 004°03'0 0.0
2019-Oct-14 02:21N 51°49' E 004°03'0 0.0
2019-Oct-14 02:00N 51°49' E 004°03'0 0.0
2019-Oct-14 01:30N 51°49' E 004°03'0 0.0
2019-Oct-14 01:00N 51°49' E 004°03'0 0.0
2019-Oct-14 00:30N 51°49' E 004°03'0 0.0
2019-Oct-14 00:00N 51°49' E 004°03'0 0.0
2019-Oct-13 23:24N 51°49' E 004°03'0 0.0
2019-Oct-13 22:54N 51°49' E 004°03'0 0.0
2019-Oct-13 22:30N 51°49' E 004°03'0 0.0
2019-Oct-13 22:00N 51°49' E 004°03'0 0.0
2019-Oct-13 21:30N 51°49' E 004°03'0 0.0
2019-Oct-13 20:57N 51°49' E 004°03'0 0.0
2019-Oct-13 20:30N 51°49' E 004°03'0 0.0
2019-Oct-13 20:00N 51°49' E 004°03'0 0.0
2019-Oct-13 19:21N 51°49' E 004°03'0 0.0
2019-Oct-13 19:00N 51°49' E 004°03'0 0.0
2019-Oct-13 18:27N 51°49' E 004°03'0 0.0
2019-Oct-13 18:00N 51°49' E 004°03'0 0.0
2019-Oct-13 17:27N 51°49' E 004°03'0 0.0
2019-Oct-13 17:00N 51°49' E 004°03'0 0.0
2019-Oct-13 16:30N 51°49' E 004°03'0 0.0
2019-Oct-13 16:00N 51°49' E 004°03'0 0.0
2019-Oct-13 15:30N 51°49' E 004°03'0 0.0
2019-Oct-13 14:57N 51°49' E 004°03'0 0.0
2019-Oct-13 14:27N 51°49' E 004°03'0 0.0
2019-Oct-13 13:36N 51°49' E 004°03'0 0.0
2019-Oct-13 13:27N 51°49' E 004°03'0 0.0
2019-Oct-13 12:54N 51°49' E 004°03'0 0.0
2019-Oct-13 12:30N 51°49' E 004°03'0 0.0
2019-Oct-13 11:57N 51°49' E 004°03'0 0.0
2019-Oct-13 11:24N 51°49' E 004°03'0 0.0
2019-Oct-13 11:00N 51°49' E 004°03'0 0.0
2019-Oct-13 10:21N 51°49' E 004°03'0 0.0
2019-Oct-13 10:00N 51°49' E 004°03'0 0.0
2019-Oct-13 09:21N 51°49' E 004°03'0 0.0
2019-Oct-13 08:54N 51°49' E 004°03'0 0.0
2019-Oct-13 08:24N 51°49' E 004°03'0 0.0
2019-Oct-13 07:54N 51°49' E 004°03'0 0.0
2019-Oct-13 07:27N 51°49' E 004°03'0 0.0
2019-Oct-13 07:00N 51°49' E 004°03'0 0.0
2019-Oct-13 06:30N 51°49' E 004°03'0 0.0
2019-Oct-13 06:00N 51°49' E 004°03'0 0.0
2019-Oct-13 05:30N 51°49' E 004°03'0 0.0
2019-Oct-13 05:00N 51°49' E 004°03'0 0.0
2019-Oct-13 04:27N 51°49' E 004°03'0 0.0
2019-Oct-13 03:57N 51°49' E 004°03'0 0.0
2019-Oct-13 03:27N 51°49' E 004°03'0 0.0
2019-Oct-13 03:00N 51°49' E 004°03'0 0.0
2019-Oct-13 02:30N 51°49' E 004°03'0 0.0
2019-Oct-13 02:00N 51°49' E 004°03'0 0.0
2019-Oct-13 01:30N 51°49' E 004°03'0 0.0
2019-Oct-13 01:00N 51°49' E 004°03'0 0.0
2019-Oct-13 00:27N 51°49' E 004°03'0 0.0
2019-Oct-13 00:00N 51°49' E 004°03'0 0.0
2019-Oct-12 23:27N 51°49' E 004°03'0 0.0
2019-Oct-12 22:54N 51°49' E 004°03'0 0.0
2019-Oct-12 22:24N 51°49' E 004°03'0 0.0
2019-Oct-12 22:00N 51°49' E 004°03'0 0.0
2019-Oct-12 21:30N 51°49' E 004°03'0 0.0
2019-Oct-12 21:00N 51°49' E 004°03'0 0.0
2019-Oct-12 20:30N 51°49' E 004°03'0 0.0
2019-Oct-12 20:00N 51°49' E 004°03'0 0.0
2019-Oct-12 19:30N 51°49' E 004°03'0 0.0
2019-Oct-12 19:00N 51°49' E 004°03'0 0.0
2019-Oct-12 18:30N 51°49' E 004°03'0 0.0
2019-Oct-12 18:00N 51°49' E 004°03'0 0.0
2019-Oct-12 17:30N 51°49' E 004°03'0 0.0
2019-Oct-12 17:00N 51°49' E 004°03'0 0.0
2019-Oct-12 16:30N 51°49' E 004°03'0 0.0
2019-Oct-12 15:57N 51°49' E 004°03'0 0.0
2019-Oct-12 15:27N 51°49' E 004°03'0 0.0
2019-Oct-12 15:00N 51°49' E 004°03'0 0.0
2019-Oct-12 14:30N 51°49' E 004°03'0 0.0
2019-Oct-12 13:57N 51°49' E 004°03'0 0.0
2019-Oct-12 13:30N 51°49' E 004°03'0 0.0
2019-Oct-12 13:00N 51°49' E 004°03'0 0.0
2019-Oct-12 12:21N 51°49' E 004°03'0 0.0
2019-Oct-12 11:57N 51°49' E 004°03'0 0.0
2019-Oct-12 11:18N 51°49' E 004°03'0 0.0
2019-Oct-12 10:54N 51°49' E 004°03'0 0.0
2019-Oct-12 10:27N 51°49' E 004°03'0 0.0
2019-Oct-12 10:00N 51°49' E 004°03'0 0.0
2019-Oct-12 09:30N 51°49' E 004°03'0 0.0
2019-Oct-12 09:00N 51°49' E 004°03'0 0.0
2019-Oct-12 08:30N 51°49' E 004°03'0 0.0
2019-Oct-12 07:48N 51°49' E 004°03'0 0.0
2019-Oct-12 07:27N 51°49' E 004°03'0 0.0
2019-Oct-12 07:00N 51°49' E 004°03'0 0.0
2019-Oct-12 06:30N 51°49' E 004°03'0 0.0
2019-Oct-12 05:54N 51°49' E 004°03'0 0.0
2019-Oct-12 05:27N 51°49' E 004°03'0 0.0
2019-Oct-12 05:00N 51°49' E 004°03'0 0.0
2019-Oct-12 04:30N 51°49' E 004°03'0 0.0
2019-Oct-12 04:00N 51°49' E 004°03'0 0.0
2019-Oct-12 03:30N 51°49' E 004°03'0 0.0
2019-Oct-12 03:00N 51°49' E 004°03'0 0.0
2019-Oct-12 02:27N 51°49' E 004°03'0 0.0
2019-Oct-12 02:00N 51°49' E 004°03'0 0.0
2019-Oct-12 01:30N 51°49' E 004°03'0 0.0
2019-Oct-12 00:57N 51°49' E 004°03'0 0.0
2019-Oct-12 00:30N 51°49' E 004°03'0 0.0
2019-Oct-12 00:00N 51°49' E 004°03'0 0.0
2019-Oct-11 23:21N 51°49' E 004°03'0 0.0
2019-Oct-11 23:00N 51°49' E 004°03'0 0.0
2019-Oct-11 22:30N 51°49' E 004°03'0 0.0
2019-Oct-11 22:00N 51°49' E 004°03'0 0.0
2019-Oct-11 21:24N 51°49' E 004°03'0 0.0
2019-Oct-11 21:00N 51°49' E 004°03'0 0.0
2019-Oct-11 20:27N 51°49' E 004°03'0 0.0
2019-Oct-11 20:00N 51°49' E 004°03'0 0.0
2019-Oct-11 19:24N 51°49' E 004°03'0 0.0
2019-Oct-11 19:00N 51°49' E 004°03'0 0.0
2019-Oct-11 18:30N 51°49' E 004°03'0 0.0
2019-Oct-11 17:57N 51°49' E 004°03'0 0.0
2019-Oct-11 17:30N 51°49' E 004°03'0 0.0
2019-Oct-11 16:48N 51°49' E 004°03'0 0.0
2019-Oct-11 16:30N 51°49' E 004°03'0 0.0
2019-Oct-11 16:00N 51°49' E 004°03'0 0.0
2019-Oct-11 15:21N 51°49' E 004°03'0 0.0
2019-Oct-11 15:00N 51°49' E 004°03'0 0.0
2019-Oct-11 14:18N 51°49' E 004°03'0 0.0
2019-Oct-11 14:00N 51°49' E 004°03'0 0.0
2019-Oct-11 13:30N 51°49' E 004°03'0 0.0
2019-Oct-11 12:57N 51°49' E 004°03'0 0.0
2019-Oct-11 12:12N 51°49' E 004°03'0 0.0
2019-Oct-11 12:00N 51°49' E 004°03'0 0.0
2019-Oct-11 11:30N 51°49' E 004°03'0 0.0
2019-Oct-11 11:00N 51°49' E 004°03'0 0.0
2019-Oct-11 10:30N 51°49' E 004°03'0 0.0
2019-Oct-11 09:54N 51°49' E 004°03'0 0.0
2019-Oct-11 09:24N 51°49' E 004°03'0 0.0
2019-Oct-11 09:00N 51°49' E 004°03'0 0.0
2019-Oct-11 08:27N 51°49' E 004°03'0 0.0
2019-Oct-11 08:00N 51°49' E 004°03'0 0.0
2019-Oct-11 07:30N 51°49' E 004°03'0 0.0
2019-Oct-11 07:00N 51°49' E 004°03'0 0.0
2019-Oct-11 06:24N 51°49' E 004°03'0 0.0
2019-Oct-11 06:00N 51°49' E 004°03'0 0.0
2019-Oct-11 05:21N 51°49' E 004°03'0 0.0
2019-Oct-11 05:00N 51°49' E 004°03'0 0.0
2019-Oct-11 04:30N 51°49' E 004°03'0 0.0
2019-Oct-11 04:00N 51°49' E 004°03'0 0.0
2019-Oct-11 03:27N 51°49' E 004°03'0 0.0
2019-Oct-11 03:00N 51°49' E 004°03'0 0.0
2019-Oct-11 02:30N 51°49' E 004°03'0 0.0
2019-Oct-11 02:00N 51°49' E 004°03'0 0.0
2019-Oct-11 01:30N 51°49' E 004°03'0 0.0
2019-Oct-11 01:00N 51°49' E 004°03'0 0.0
2019-Oct-11 00:30N 51°49' E 004°03'0 0.0
2019-Oct-11 00:00N 51°49' E 004°03'0 0.0
2019-Oct-10 23:30N 51°49' E 004°03'0 0.0
2019-Oct-10 22:57N 51°49' E 004°03'0 0.0
2019-Oct-10 22:30N 51°49' E 004°03'0 0.0
2019-Oct-10 22:00N 51°49' E 004°03'0 0.0
2019-Oct-10 21:27N 51°49' E 004°03'0 0.0
2019-Oct-10 20:54N 51°49' E 004°03'0 0.0
2019-Oct-10 20:30N 51°49' E 004°03'0 0.0
2019-Oct-10 20:00N 51°49' E 004°03'0 0.0
2019-Oct-10 19:21N 51°49' E 004°03'0 0.0
2019-Oct-10 19:00N 51°49' E 004°03'0 0.0
2019-Oct-10 18:30N 51°49' E 004°03'0 0.0
2019-Oct-10 18:00N 51°49' E 004°03'0 0.0
2019-Oct-10 17:30N 51°49' E 004°03'0 0.0
2019-Oct-10 17:00N 51°49' E 004°03'0 0.0
2019-Oct-10 16:30N 51°49' E 004°03'0 0.0
2019-Oct-10 16:00N 51°49' E 004°03'0 0.0
2019-Oct-10 15:27N 51°49' E 004°03'0 0.0
2019-Oct-10 15:00N 51°49' E 004°03'0 0.0
2019-Oct-10 14:30N 51°49' E 004°03'0 0.0
2019-Oct-10 13:48N 51°49' E 004°03'0 0.0
2019-Oct-10 13:09N 51°49' E 004°03'0 0.0
2019-Oct-10 12:51N 51°49' E 004°03'0 0.0
2019-Oct-10 12:30N 51°49' E 004°03'0 0.0
2019-Oct-10 12:00N 51°49' E 004°03'0 0.0
2019-Oct-10 11:18N 51°49' E 004°03'0 0.0
2019-Oct-10 10:57N 51°49' E 004°03'0 0.0
2019-Oct-10 10:30N 51°49' E 004°03'0 0.0
2019-Oct-10 09:54N 51°49' E 004°03'0 0.0
2019-Oct-10 09:30N 51°49' E 004°03'0 0.0
2019-Oct-10 09:00N 51°49' E 004°03'0 0.0
2019-Oct-10 08:30N 51°49' E 004°03'0 0.0
2019-Oct-10 08:00N 51°49' E 004°03'0 0.0
2019-Oct-10 07:30N 51°49' E 004°03'0 0.0
2019-Oct-10 07:00N 51°49' E 004°03'0 0.0
2019-Oct-10 06:30N 51°49' E 004°03'0 0.0
2019-Oct-10 06:00N 51°49' E 004°03'0 0.0
2019-Oct-10 05:30N 51°49' E 004°03'0 0.0
2019-Oct-10 04:57N 51°49' E 004°03'0 0.0
2019-Oct-10 04:30N 51°49' E 004°03'0 0.0
2019-Oct-10 04:00N 51°49' E 004°03'0 0.0
2019-Oct-10 03:30N 51°49' E 004°03'0 0.0
2019-Oct-10 02:57N 51°49' E 004°03'0 0.0
2019-Oct-10 02:30N 51°49' E 004°03'0 0.0
2019-Oct-10 01:57N 51°49' E 004°03'0 0.0
2019-Oct-10 01:30N 51°49' E 004°03'0 0.0
2019-Oct-10 01:00N 51°49' E 004°03'0 0.0
2019-Oct-10 00:30N 51°49' E 004°03'0 0.0
2019-Oct-10 00:00N 51°49' E 004°03'0 0.0
2019-Oct-09 23:27N 51°49' E 004°03'0 0.0
2019-Oct-09 23:00N 51°49' E 004°03'0 0.0
2019-Oct-09 22:30N 51°49' E 004°03'0 0.0
2019-Oct-09 22:00N 51°49' E 004°03'0 0.0
2019-Oct-09 21:30N 51°49' E 004°03'0 0.0
2019-Oct-09 21:00N 51°49' E 004°03'0 0.0
2019-Oct-09 20:27N 51°49' E 004°03'0 0.0
2019-Oct-09 20:00N 51°49' E 004°03'0 0.0
2019-Oct-09 19:30N 51°49' E 004°03'0 0.0
2019-Oct-09 19:00N 51°49' E 004°03'0 0.0
2019-Oct-09 18:30N 51°49' E 004°03'0 0.0
2019-Oct-09 17:51N 51°49' E 004°03'0 0.0
2019-Oct-09 17:27N 51°49' E 004°03'0 0.0
2019-Oct-09 17:00N 51°49' E 004°03'0 0.0
2019-Oct-09 16:30N 51°49' E 004°03'0 0.0
2019-Oct-09 15:54N 51°49' E 004°03'0 0.0
2019-Oct-09 15:30N 51°49' E 004°03'0 0.0
2019-Oct-09 15:00N 51°49' E 004°03'0 0.0
2019-Oct-09 14:15N 51°49' E 004°03'0 0.0
2019-Oct-09 13:54N 51°49' E 004°03'0 0.0
2019-Oct-09 13:30N 51°49' E 004°03'0 0.0
2019-Oct-09 13:00N 51°49' E 004°03'0 0.0
2019-Oct-09 12:30N 51°49' E 004°03'0 0.0
2019-Oct-09 12:00N 51°49' E 004°03'0 0.0
2019-Oct-09 11:24N 51°49' E 004°03'0 0.0
2019-Oct-09 11:00N 51°49' E 004°03'0 0.0
2019-Oct-09 10:30N 51°49' E 004°03'0 0.0
2019-Oct-09 09:42N 51°49' E 004°03'0 0.0
2019-Oct-09 09:30N 51°49' E 004°03'0 0.0
2019-Oct-09 09:00N 51°49' E 004°03'0 0.0
2019-Oct-09 08:30N 51°49' E 004°03'0 0.0
2019-Oct-09 08:00N 51°49' E 004°03'0 0.0
2019-Oct-09 07:30N 51°49' E 004°03'0 0.0
2019-Oct-09 06:27N 51°49' E 004°03'0 0.0
2019-Oct-09 05:48N 51°49' E 004°03'0 0.0
2019-Oct-09 05:27N 51°49' E 004°03'0 0.0
2019-Oct-09 05:00N 51°49' E 004°03'0 0.0
2019-Oct-09 04:27N 51°49' E 004°03'0 0.0
2019-Oct-09 04:00N 51°49' E 004°03'0 0.0
2019-Oct-09 03:30N 51°49' E 004°03'0 0.0
2019-Oct-09 03:00N 51°49' E 004°03'0 0.0
2019-Oct-09 02:30N 51°49' E 004°03'0 0.0
2019-Oct-09 02:00N 51°49' E 004°03'0 0.0
2019-Oct-09 01:30N 51°49' E 004°03'0 0.0
2019-Oct-09 01:00N 51°49' E 004°03'0 0.0
2019-Oct-09 00:30N 51°49' E 004°03'0 0.0
2019-Oct-08 23:57N 51°49' E 004°03'0 0.0
2019-Oct-08 23:24N 51°49' E 004°03'0 0.0
2019-Oct-08 23:00N 51°49' E 004°03'0 0.0
2019-Oct-08 22:30N 51°49' E 004°03'0 0.0
2019-Oct-08 21:57N 51°49' E 004°03'0 0.0
2019-Oct-08 21:30N 51°49' E 004°03'0 0.0
2019-Oct-08 21:00N 51°49' E 004°03'0 0.0
2019-Oct-08 20:24N 51°49' E 004°03'0 0.0
2019-Oct-08 20:00N 51°49' E 004°03'0 0.0
2019-Oct-08 19:30N 51°49' E 004°03'0 0.0
2019-Oct-08 19:00N 51°49' E 004°03'0 0.0
2019-Oct-08 18:27N 51°49' E 004°03'0 0.0
2019-Oct-08 17:51N 51°49' E 004°03'0 0.0
2019-Oct-08 17:30N 51°49' E 004°03'0 0.0
2019-Oct-08 17:00N 51°49' E 004°03'0 0.0
2019-Oct-08 16:30N 51°49' E 004°03'0 0.0
2019-Oct-08 16:00N 51°49' E 004°03'0 0.0
2019-Oct-08 15:30N 51°49' E 004°03'0 0.0
2019-Oct-08 15:00N 51°49' E 004°03'0 0.0
2019-Oct-08 14:30N 51°49' E 004°03'0 0.0
2019-Oct-08 13:51N 51°49' E 004°03'0 0.0
2019-Oct-08 13:30N 51°49' E 004°03'0 0.0
2019-Oct-08 13:00N 51°49' E 004°03'0 0.0
2019-Oct-08 12:30N 51°49' E 004°03'0 0.0
2019-Oct-08 11:54N 51°49' E 004°03'0 0.0
2019-Oct-08 11:27N 51°49' E 004°03'0 0.0
2019-Oct-08 11:00N 51°49' E 004°03'0 0.0
2019-Oct-08 10:30N 51°49' E 004°03'0 0.0
2019-Oct-08 09:57N 51°49' E 004°03'0 0.0
2019-Oct-08 09:27N 51°49' E 004°03'0 0.0
2019-Oct-08 09:00N 51°49' E 004°03'0 0.0
2019-Oct-08 08:30N 51°49' E 004°03'0 0.0
2019-Oct-08 07:57N 51°49' E 004°03'0 0.0
2019-Oct-08 07:24N 51°49' E 004°03'0 0.0
2019-Oct-08 07:00N 51°49' E 004°03'0 0.0
2019-Oct-08 06:30N 51°49' E 004°03'0 0.0
2019-Oct-08 06:00N 51°49' E 004°03'0 0.0
2019-Oct-08 05:18N 51°49' E 004°03'0 0.0
2019-Oct-08 05:00N 51°49' E 004°03'0 0.0
2019-Oct-08 04:30N 51°49' E 004°03'0 0.0
2019-Oct-08 03:57N 51°49' E 004°03'0 0.0
2019-Oct-08 03:30N 51°49' E 004°03'0 0.0
2019-Oct-08 03:00N 51°49' E 004°03'0 0.0
2019-Oct-08 02:21N 51°49' E 004°03'0 0.0
2019-Oct-08 02:00N 51°49' E 004°03'0 0.0
2019-Oct-08 01:18N 51°49' E 004°03'0 0.0
2019-Oct-08 01:00N 51°49' E 004°03'0 0.0
2019-Oct-08 00:30N 51°49' E 004°03'0 0.0
2019-Oct-08 00:00N 51°49' E 004°03'0 0.0
2019-Oct-07 23:27N 51°49' E 004°03'0 0.0
2019-Oct-07 22:42N 51°49' E 004°03'0 0.0
2019-Oct-07 22:30N 51°49' E 004°03'0 0.0
2019-Oct-07 22:00N 51°49' E 004°03'0 0.0
2019-Oct-07 21:27N 51°49' E 004°03'0 0.0
2019-Oct-07 20:57N 51°49' E 004°03'0 0.0
2019-Oct-07 20:27N 51°49' E 004°03'0 0.0
2019-Oct-07 20:00N 51°49' E 004°03'0 0.0
2019-Oct-07 19:24N 51°49' E 004°03'0 0.0
2019-Oct-07 19:00N 51°49' E 004°03'0 0.0
2019-Oct-07 18:21N 51°49' E 004°03'0 0.0
2019-Oct-07 17:57N 51°49' E 004°03'0 0.0
2019-Oct-07 17:27N 51°49' E 004°03'0 0.0
2019-Oct-07 16:54N 51°49' E 004°03'0 0.0
2019-Oct-07 16:30N 51°49' E 004°03'  
Track history (hours):
 
Tides and Currents Weather Stations Pressure Air Temp Water Temp Dewpoint Dewpoint Depression Visibility Wind Speed Wind Dir Waves Ship Positions

Oosterschelde (Netherlands)

Ship's website: http://www.oosterschelde.nl/indexuk.htm

Last reported at 2019-Oct-17 16:29 UTC. Time now 2019-Oct-17 16:35 UTC.
Position N 51°55' E 004°29'.

Length 49 m; draft 2.9 m.

Type: Sailing vessel. MMSI: 246010985.

Date/timePositionNaut miles runAvg speedWind from/ knotsBaromVisibWave heightAir tempDewpointWater temp
2019-Oct-17 16:29N 51°55' E 004°29'0 0.0
2019-Oct-17 15:59N 51°55' E 004°29'0 0.0
2019-Oct-17 15:29N 51°55' E 004°29'0 0.0
2019-Oct-17 14:59N 51°55' E 004°29'0 0.0
2019-Oct-17 14:29N 51°55' E 004°29'0 0.0
2019-Oct-17 13:59N 51°55' E 004°29'0 0.0
2019-Oct-17 13:29N 51°55' E 004°29'0 0.0
2019-Oct-17 12:59N 51°55' E 004°29'0 0.0
2019-Oct-17 12:29N 51°55' E 004°29'0 0.0
2019-Oct-17 11:59N 51°55' E 004°29'0 0.0
2019-Oct-17 11:29N 51°55' E 004°29'0 0.0
2019-Oct-17 10:59N 51°55' E 004°29'0 0.0
2019-Oct-17 10:29N 51°55' E 004°29'0 0.0
2019-Oct-17 09:56N 51°55' E 004°29'0 0.0
2019-Oct-17 09:29N 51°55' E 004°29'0 0.0
2019-Oct-17 08:59N 51°55' E 004°29'0 0.0
2019-Oct-17 08:29N 51°55' E 004°29'0 0.0
2019-Oct-17 07:59N 51°55' E 004°29'0 0.0
2019-Oct-17 07:29N 51°55' E 004°29'0 0.0
2019-Oct-17 06:59N 51°55' E 004°29'0 0.0
2019-Oct-17 06:29N 51°55' E 004°29'0 0.0
2019-Oct-17 05:59N 51°55' E 004°29'0 0.0
2019-Oct-17 05:29N 51°55' E 004°29'0 0.0
2019-Oct-17 04:59N 51°55' E 004°29'0 0.0
2019-Oct-17 04:29N 51°55' E 004°29'0 0.0
2019-Oct-17 03:59N 51°55' E 004°29'0 0.0
2019-Oct-17 03:29N 51°55' E 004°29'0 0.0
2019-Oct-17 02:59N 51°55' E 004°29'0 0.0
2019-Oct-17 02:29N 51°55' E 004°29'0 0.0
2019-Oct-17 01:59N 51°55' E 004°29'0 0.0
2019-Oct-17 01:29N 51°55' E 004°29'0 0.0
2019-Oct-17 00:59N 51°55' E 004°29'0 0.0
2019-Oct-17 00:29N 51°55' E 004°29'0 0.0
2019-Oct-16 23:59N 51°55' E 004°29'0 0.0
2019-Oct-16 23:29N 51°55' E 004°29'0 0.0
2019-Oct-16 22:59N 51°55' E 004°29'0 0.0
2019-Oct-16 22:29N 51°55' E 004°29'0 0.0
2019-Oct-16 21:59N 51°55' E 004°29'0 0.0
2019-Oct-16 21:29N 51°55' E 004°29'0 0.0
2019-Oct-16 20:59N 51°55' E 004°29'0 0.0
2019-Oct-16 20:29N 51°55' E 004°29'0 0.0
2019-Oct-16 19:59N 51°55' E 004°29'0 0.0
2019-Oct-16 19:29N 51°55' E 004°29'0 0.0
2019-Oct-16 18:59N 51°55' E 004°29'0 0.0
2019-Oct-16 18:29N 51°55' E 004°29'0 0.0
2019-Oct-16 17:56N 51°55' E 004°29'0 0.1
2019-Oct-16 17:31N 51°55' E 004°29'0 0.9
2019-Oct-16 17:00N 51°54' E 004°29'0 0.2
2019-Oct-16 16:28N 51°54' E 004°29'0 0.0
2019-Oct-16 15:58N 51°54' E 004°29'0 0.0
2019-Oct-16 15:28N 51°54' E 004°29'0 0.0
2019-Oct-16 14:58N 51°54' E 004°29'0 0.0
2019-Oct-16 14:28N 51°54' E 004°29'1 3.1
2019-Oct-16 14:00N 51°54' E 004°27'4 7.3
2019-Oct-16 13:30N 51°54' E 004°21'3 6.7
2019-Oct-16 13:01N 51°54' E 004°16'3 6.0
2019-Oct-16 12:30N 51°56' E 004°12'3 5.6
2019-Oct-16 12:00N 51°58' E 004°08'3 5.2
2019-Oct-16 11:31N 51°59' E 004°04'3 5.4
2019-Oct-16 11:00N 51°60' E 004°00'1 1.9
2019-Oct-16 10:30N 51°59' E 003°59'2 4.5
2019-Oct-16 10:00N 51°58' E 003°55'4 7.2
2019-Oct-16 09:30N 51°55' E 003°52'3 6.9
2019-Oct-16 09:00N 51°52' E 003°53'4 7.1
2019-Oct-16 08:30N 51°51' E 003°58'3 5.1
2019-Oct-16 08:00N 51°50' E 004°02'1 1.2
2019-Oct-16 07:28N 51°49' E 004°02'0 0.4
2019-Oct-16 06:58N 51°49' E 004°02'0 0.0
2019-Oct-16 06:28N 51°49' E 004°02'0 0.0
2019-Oct-16 05:58N 51°49' E 004°02'0 0.0
2019-Oct-16 05:28N 51°49' E 004°02'0 0.0
2019-Oct-16 04:58N 51°49' E 004°02'0 0.0
2019-Oct-16 04:28N 51°49' E 004°02'0 0.0
2019-Oct-16 03:58N 51°49' E 004°02'0 0.0
2019-Oct-16 03:28N 51°49' E 004°02'0 0.0
2019-Oct-16 02:55N 51°49' E 004°02'0 0.0
2019-Oct-16 02:28N 51°49' E 004°02'0 0.0
2019-Oct-16 01:58N 51°49' E 004°02'0 0.0
2019-Oct-16 01:28N 51°49' E 004°02'0 0.0
2019-Oct-16 00:58N 51°49' E 004°02'0 0.0
2019-Oct-16 00:28N 51°49' E 004°02'0 0.0
2019-Oct-15 23:58N 51°49' E 004°02'0 0.0
2019-Oct-15 23:28N 51°49' E 004°02'0 0.0
2019-Oct-15 22:49N 51°49' E 004°02'0 0.0
2019-Oct-15 22:25N 51°49' E 004°02'0 0.0
2019-Oct-15 21:55N 51°49' E 004°02'0 0.0
2019-Oct-15 21:28N 51°49' E 004°02'0 0.0
2019-Oct-15 20:58N 51°49' E 004°02'0 0.0
2019-Oct-15 20:28N 51°49' E 004°02'0 0.0
2019-Oct-15 19:58N 51°49' E 004°02'0 0.0
2019-Oct-15 19:25N 51°49' E 004°02'0 0.0
2019-Oct-15 18:58N 51°49' E 004°02'0 0.0
2019-Oct-15 18:25N 51°49' E 004°02'0 0.0
2019-Oct-15 17:52N 51°49' E 004°02'0 0.0
2019-Oct-15 17:22N 51°49' E 004°02'0 0.0
2019-Oct-15 16:58N 51°49' E 004°02'0 0.0
2019-Oct-15 16:28N 51°49' E 004°02'0 0.0
2019-Oct-15 15:55N 51°49' E 004°02'0 0.0
2019-Oct-15 15:28N 51°49' E 004°02'0 0.0
2019-Oct-15 14:58N 51°49' E 004°02'0 0.0
2019-Oct-15 14:25N 51°49' E 004°02'0 0.0
2019-Oct-15 13:58N 51°49' E 004°02'0 0.0
2019-Oct-15 13:28N 51°49' E 004°02'0 0.0
2019-Oct-15 12:58N 51°49' E 004°02'0 0.0
2019-Oct-15 12:28N 51°49' E 004°02'0 0.0
2019-Oct-15 11:58N 51°49' E 004°02'0 0.0
2019-Oct-15 11:25N 51°49' E 004°02'0 0.0
2019-Oct-15 10:55N 51°49' E 004°02'0 0.0
2019-Oct-15 10:28N 51°49' E 004°02'0 0.0
2019-Oct-15 09:58N 51°49' E 004°02'0 0.0
2019-Oct-15 09:28N 51°49' E 004°02'0 0.0
2019-Oct-15 08:58N 51°49' E 004°02'0 0.0
2019-Oct-15 08:28N 51°49' E 004°02'0 0.0
2019-Oct-15 07:55N 51°49' E 004°02'0 0.0
2019-Oct-15 07:28N 51°49' E 004°02'0 0.0
2019-Oct-15 06:58N 51°49' E 004°02'0 0.0
2019-Oct-15 06:25N 51°49' E 004°02'0 0.0
2019-Oct-15 05:55N 51°49' E 004°02'0 0.0
2019-Oct-15 05:28N 51°49' E 004°02'0 0.2
2019-Oct-15 04:58N 51°49' E 004°02'0 0.0
2019-Oct-15 04:28N 51°49' E 004°02'0 0.0
2019-Oct-15 03:58N 51°49' E 004°02'0 0.0
2019-Oct-15 03:25N 51°49' E 004°02'0 0.0
2019-Oct-15 02:58N 51°49' E 004°02'0 0.0
2019-Oct-15 02:25N 51°49' E 004°02'0 0.0
2019-Oct-15 01:58N 51°49' E 004°02'0 0.0
2019-Oct-15 01:25N 51°49' E 004°02'0 0.0
2019-Oct-15 00:58N 51°49' E 004°02'0 0.0
2019-Oct-15 00:28N 51°49' E 004°02'0 0.0
2019-Oct-14 23:55N 51°49' E 004°02'0 0.0
2019-Oct-14 23:28N 51°49' E 004°02'0 0.0
2019-Oct-14 22:58N 51°49' E 004°02'0 0.0
2019-Oct-14 22:28N 51°49' E 004°02'0 0.0
2019-Oct-14 21:49N 51°49' E 004°02'0 0.0
2019-Oct-14 21:28N 51°49' E 004°02'0 0.0
2019-Oct-14 20:58N 51°49' E 004°02'0 0.0
2019-Oct-14 20:28N 51°49' E 004°02'0 0.0
2019-Oct-14 19:55N 51°49' E 004°02'0 0.0
2019-Oct-14 19:25N 51°49' E 004°02'0 0.0
2019-Oct-14 18:55N 51°49' E 004°02'0 0.0
2019-Oct-14 18:28N 51°49' E 004°02'0 0.0
2019-Oct-14 17:58N 51°49' E 004°02'0 0.0
2019-Oct-14 17:28N 51°49' E 004°02'0 0.0
2019-Oct-14 16:55N 51°49' E 004°02'0 0.0
2019-Oct-14 16:25N 51°49' E 004°02'0 0.0
2019-Oct-14 15:58N 51°49' E 004°02'0 0.0
2019-Oct-14 15:28N 51°49' E 004°02'0 0.0
2019-Oct-14 14:58N 51°49' E 004°02'0 0.0
2019-Oct-14 14:22N 51°49' E 004°02'0 0.0
2019-Oct-14 13:58N 51°49' E 004°02'0 0.0
2019-Oct-14 13:22N 51°49' E 004°02'0 0.0
2019-Oct-14 12:58N 51°49' E 004°02'0 0.0
2019-Oct-14 12:19N 51°49' E 004°02'0 0.0
2019-Oct-14 12:00N 51°49' E 004°02'1 1.0
2019-Oct-14 11:31N 51°49' E 004°03'0 0.8
2019-Oct-14 11:00N 51°49' E 004°03'0 0.0
2019-Oct-14 10:15N 51°49' E 004°03'0 0.0
2019-Oct-14 10:00N 51°49' E 004°03'0 0.0
2019-Oct-14 09:27N 51°49' E 004°03'0 0.0
2019-Oct-14 09:00N 51°49' E 004°03'0 0.0
2019-Oct-14 08:30N 51°49' E 004°03'0 0.0
2019-Oct-14 08:00N 51°49' E 004°03'0 0.0
2019-Oct-14 07:30N 51°49' E 004°03'0 0.0
2019-Oct-14 06:57N 51°49' E 004°03'0 0.0
2019-Oct-14 06:30N 51°49' E 004°03'0 0.0
2019-Oct-14 06:00N 51°49' E 004°03'0 0.0
2019-Oct-14 05:30N 51°49' E 004°03'0 0.0
2019-Oct-14 05:00N 51°49' E 004°03'0 0.0
2019-Oct-14 04:30N 51°49' E 004°03'0 0.0
2019-Oct-14 04:00N 51°49' E 004°03'0 0.0
2019-Oct-14 03:27N 51°49' E 004°03'0 0.0
2019-Oct-14 03:00N 51°49' E 004°03'0 0.0
2019-Oct-14 02:21N 51°49' E 004°03'0 0.0
2019-Oct-14 02:00N 51°49' E 004°03'0 0.0
2019-Oct-14 01:30N 51°49' E 004°03'0 0.0
2019-Oct-14 01:00N 51°49' E 004°03'0 0.0
2019-Oct-14 00:30N 51°49' E 004°03'0 0.0
2019-Oct-14 00:00N 51°49' E 004°03'0 0.0
2019-Oct-13 23:24N 51°49' E 004°03'0 0.0
2019-Oct-13 22:54N 51°49' E 004°03'0 0.0
2019-Oct-13 22:30N 51°49' E 004°03'0 0.0
2019-Oct-13 22:00N 51°49' E 004°03'0 0.0
2019-Oct-13 21:30N 51°49' E 004°03'0 0.0
2019-Oct-13 20:57N 51°49' E 004°03'0 0.0
2019-Oct-13 20:30N 51°49' E 004°03'0 0.0
2019-Oct-13 20:00N 51°49' E 004°03'0 0.0
2019-Oct-13 19:21N 51°49' E 004°03'0 0.0
2019-Oct-13 19:00N 51°49' E 004°03'0 0.0
2019-Oct-13 18:27N 51°49' E 004°03'0 0.0
2019-Oct-13 18:00N 51°49' E 004°03'0 0.0
2019-Oct-13 17:27N 51°49' E 004°03'0 0.0
2019-Oct-13 17:00N 51°49' E 004°03'0 0.0
2019-Oct-13 16:30N 51°49' E 004°03'0 0.0
2019-Oct-13 16:00N 51°49' E 004°03'0 0.0
2019-Oct-13 15:30N 51°49' E 004°03'0 0.0
2019-Oct-13 14:57N 51°49' E 004°03'0 0.0
2019-Oct-13 14:27N 51°49' E 004°03'0 0.0
2019-Oct-13 13:36N 51°49' E 004°03'0 0.0
2019-Oct-13 13:27N 51°49' E 004°03'0 0.0
2019-Oct-13 12:54N 51°49' E 004°03'0 0.0
2019-Oct-13 12:30N 51°49' E 004°03'0 0.0
2019-Oct-13 11:57N 51°49' E 004°03'0 0.0
2019-Oct-13 11:24N 51°49' E 004°03'0 0.0
2019-Oct-13 11:00N 51°49' E 004°03'0 0.0
2019-Oct-13 10:21N 51°49' E 004°03'0 0.0
2019-Oct-13 10:00N 51°49' E 004°03'0 0.0
2019-Oct-13 09:21N 51°49' E 004°03'0 0.0
2019-Oct-13 08:54N 51°49' E 004°03'0 0.0
2019-Oct-13 08:24N 51°49' E 004°03'0 0.0
2019-Oct-13 07:54N 51°49' E 004°03'0 0.0
2019-Oct-13 07:27N 51°49' E 004°03'0 0.0
2019-Oct-13 07:00N 51°49' E 004°03'0 0.0
2019-Oct-13 06:30N 51°49' E 004°03'0 0.0
2019-Oct-13 06:00N 51°49' E 004°03'0 0.0
2019-Oct-13 05:30N 51°49' E 004°03'0 0.0
2019-Oct-13 05:00N 51°49' E 004°03'0 0.0
2019-Oct-13 04:27N 51°49' E 004°03'0 0.0
2019-Oct-13 03:57N 51°49' E 004°03'0 0.0
2019-Oct-13 03:27N 51°49' E 004°03'0 0.0
2019-Oct-13 03:00N 51°49' E 004°03'0 0.0
2019-Oct-13 02:30N 51°49' E 004°03'0 0.0
2019-Oct-13 02:00N 51°49' E 004°03'0 0.0
2019-Oct-13 01:30N 51°49' E 004°03'0 0.0
2019-Oct-13 01:00N 51°49' E 004°03'0 0.0
2019-Oct-13 00:27N 51°49' E 004°03'0 0.0
2019-Oct-13 00:00N 51°49' E 004°03'0 0.0
2019-Oct-12 23:27N 51°49' E 004°03'0 0.0
2019-Oct-12 22:54N 51°49' E 004°03'0 0.0
2019-Oct-12 22:24N 51°49' E 004°03'0 0.0
2019-Oct-12 22:00N 51°49' E 004°03'0 0.0
2019-Oct-12 21:30N 51°49' E 004°03'0 0.0
2019-Oct-12 21:00N 51°49' E 004°03'0 0.0
2019-Oct-12 20:30N 51°49' E 004°03'0 0.0
2019-Oct-12 20:00N 51°49' E 004°03'0 0.0
2019-Oct-12 19:30N 51°49' E 004°03'0 0.0
2019-Oct-12 19:00N 51°49' E 004°03'0 0.0
2019-Oct-12 18:30N 51°49' E 004°03'0 0.0
2019-Oct-12 18:00N 51°49' E 004°03'0 0.0
2019-Oct-12 17:30N 51°49' E 004°03'0 0.0
2019-Oct-12 17:00N 51°49' E 004°03'0 0.0
2019-Oct-12 16:30N 51°49' E 004°03'0 0.0
2019-Oct-12 15:57N 51°49' E 004°03'0 0.0
2019-Oct-12 15:27N 51°49' E 004°03'0 0.0
2019-Oct-12 15:00N 51°49' E 004°03'0 0.0
2019-Oct-12 14:30N 51°49' E 004°03'0 0.0
2019-Oct-12 13:57N 51°49' E 004°03'0 0.0
2019-Oct-12 13:30N 51°49' E 004°03'0 0.0
2019-Oct-12 13:00N 51°49' E 004°03'0 0.0
2019-Oct-12 12:21N 51°49' E 004°03'0 0.0
2019-Oct-12 11:57N 51°49' E 004°03'0 0.0
2019-Oct-12 11:18N 51°49' E 004°03'0 0.0
2019-Oct-12 10:54N 51°49' E 004°03'0 0.0
2019-Oct-12 10:27N 51°49' E 004°03'0 0.0
2019-Oct-12 10:00N 51°49' E 004°03'0 0.0
2019-Oct-12 09:30N 51°49' E 004°03'0 0.0
2019-Oct-12 09:00N 51°49' E 004°03'0 0.0
2019-Oct-12 08:30N 51°49' E 004°03'0 0.0
2019-Oct-12 07:48N 51°49' E 004°03'0 0.0
2019-Oct-12 07:27N 51°49' E 004°03'0 0.0
2019-Oct-12 07:00N 51°49' E 004°03'0 0.0
2019-Oct-12 06:30N 51°49' E 004°03'0 0.0
2019-Oct-12 05:54N 51°49' E 004°03'0 0.0
2019-Oct-12 05:27N 51°49' E 004°03'0 0.0
2019-Oct-12 05:00N 51°49' E 004°03'0 0.0
2019-Oct-12 04:30N 51°49' E 004°03'0 0.0
2019-Oct-12 04:00N 51°49' E 004°03'0 0.0
2019-Oct-12 03:30N 51°49' E 004°03'0 0.0
2019-Oct-12 03:00N 51°49' E 004°03'0 0.0
2019-Oct-12 02:27N 51°49' E 004°03'0 0.0
2019-Oct-12 02:00N 51°49' E 004°03'0 0.0
2019-Oct-12 01:30N 51°49' E 004°03'0 0.0
2019-Oct-12 00:57N 51°49' E 004°03'0 0.0
2019-Oct-12 00:30N 51°49' E 004°03'0 0.0
2019-Oct-12 00:00N 51°49' E 004°03'0 0.0
2019-Oct-11 23:21N 51°49' E 004°03'0 0.0
2019-Oct-11 23:00N 51°49' E 004°03'0 0.0
2019-Oct-11 22:30N 51°49' E 004°03'0 0.0
2019-Oct-11 22:00N 51°49' E 004°03'0 0.0
2019-Oct-11 21:24N 51°49' E 004°03'0 0.0
2019-Oct-11 21:00N 51°49' E 004°03'0 0.0
2019-Oct-11 20:27N 51°49' E 004°03'0 0.0
2019-Oct-11 20:00N 51°49' E 004°03'0 0.0
2019-Oct-11 19:24N 51°49' E 004°03'0 0.0
2019-Oct-11 19:00N 51°49' E 004°03'0 0.0
2019-Oct-11 18:30N 51°49' E 004°03'0 0.0
2019-Oct-11 17:57N 51°49' E 004°03'0 0.0
2019-Oct-11 17:30N 51°49' E 004°03'0 0.0
2019-Oct-11 16:48N 51°49' E 004°03'0 0.0
2019-Oct-11 16:30N 51°49' E 004°03'0 0.0
2019-Oct-11 16:00N 51°49' E 004°03'0 0.0
2019-Oct-11 15:21N 51°49' E 004°03'0 0.0
2019-Oct-11 15:00N 51°49' E 004°03'0 0.0
2019-Oct-11 14:18N 51°49' E 004°03'0 0.0
2019-Oct-11 14:00N 51°49' E 004°03'0 0.0
2019-Oct-11 13:30N 51°49' E 004°03'0 0.0
2019-Oct-11 12:57N 51°49' E 004°03'0 0.0
2019-Oct-11 12:12N 51°49' E 004°03'0 0.0
2019-Oct-11 12:00N 51°49' E 004°03'0 0.0
2019-Oct-11 11:30N 51°49' E 004°03'0 0.0
2019-Oct-11 11:00N 51°49' E 004°03'0 0.0
2019-Oct-11 10:30N 51°49' E 004°03'0 0.0
2019-Oct-11 09:54N 51°49' E 004°03'0 0.0
2019-Oct-11 09:24N 51°49' E 004°03'0 0.0
2019-Oct-11 09:00N 51°49' E 004°03'0 0.0
2019-Oct-11 08:27N 51°49' E 004°03'0 0.0
2019-Oct-11 08:00N 51°49' E 004°03'0 0.0
2019-Oct-11 07:30N 51°49' E 004°03'0 0.0
2019-Oct-11 07:00N 51°49' E 004°03'0 0.0
2019-Oct-11 06:24N 51°49' E 004°03'0 0.0
2019-Oct-11 06:00N 51°49' E 004°03'0 0.0
2019-Oct-11 05:21N 51°49' E 004°03'0 0.0
2019-Oct-11 05:00N 51°49' E 004°03'0 0.0
2019-Oct-11 04:30N 51°49' E 004°03'0 0.0
2019-Oct-11 04:00N 51°49' E 004°03'0 0.0
2019-Oct-11 03:27N 51°49' E 004°03'0 0.0
2019-Oct-11 03:00N 51°49' E 004°03'0 0.0
2019-Oct-11 02:30N 51°49' E 004°03'0 0.0
2019-Oct-11 02:00N 51°49' E 004°03'0 0.0
2019-Oct-11 01:30N 51°49' E 004°03'0 0.0
2019-Oct-11 01:00N 51°49' E 004°03'0 0.0
2019-Oct-11 00:30N 51°49' E 004°03'0 0.0
2019-Oct-11 00:00N 51°49' E 004°03'0 0.0
2019-Oct-10 23:30N 51°49' E 004°03'0 0.0
2019-Oct-10 22:57N 51°49' E 004°03'0 0.0
2019-Oct-10 22:30N 51°49' E 004°03'0 0.0
2019-Oct-10 22:00N 51°49' E 004°03'0 0.0
2019-Oct-10 21:27N 51°49' E 004°03'0 0.0
2019-Oct-10 20:54N 51°49' E 004°03'0 0.0
2019-Oct-10 20:30N 51°49' E 004°03'0 0.0
2019-Oct-10 20:00N 51°49' E 004°03'0 0.0
2019-Oct-10 19:21N 51°49' E 004°03'0 0.0
2019-Oct-10 19:00N 51°49' E 004°03'0 0.0
2019-Oct-10 18:30N 51°49' E 004°03'0 0.0
2019-Oct-10 18:00N 51°49' E 004°03'0 0.0
2019-Oct-10 17:30N 51°49' E 004°03'0 0.0
2019-Oct-10 17:00N 51°49' E 004°03'0 0.0
2019-Oct-10 16:30N 51°49' E 004°03'0 0.0
2019-Oct-10 16:00N 51°49' E 004°03'0 0.0
2019-Oct-10 15:27N 51°49' E 004°03'0 0.0
2019-Oct-10 15:00N 51°49' E 004°03'0 0.0
2019-Oct-10 14:30N 51°49' E 004°03'0 0.0
2019-Oct-10 13:48N 51°49' E 004°03'0 0.0
2019-Oct-10 13:09N 51°49' E 004°03'0 0.0
2019-Oct-10 12:51N 51°49' E 004°03'0 0.0
2019-Oct-10 12:30N 51°49' E 004°03'0 0.0
2019-Oct-10 12:00N 51°49' E 004°03'0 0.0
2019-Oct-10 11:18N 51°49' E 004°03'0 0.0
2019-Oct-10 10:57N 51°49' E 004°03'0 0.0
2019-Oct-10 10:30N 51°49' E 004°03'0 0.0
2019-Oct-10 09:54N 51°49' E 004°03'0 0.0
2019-Oct-10 09:30N 51°49' E 004°03'0 0.0
2019-Oct-10 09:00N 51°49' E 004°03'0 0.0
2019-Oct-10 08:30N 51°49' E 004°03'0 0.0
2019-Oct-10 08:00N 51°49' E 004°03'0 0.0
2019-Oct-10 07:30N 51°49' E 004°03'0 0.0
2019-Oct-10 07:00N 51°49' E 004°03'0 0.0
2019-Oct-10 06:30N 51°49' E 004°03'0 0.0
2019-Oct-10 06:00N 51°49' E 004°03'0 0.0
2019-Oct-10 05:30N 51°49' E 004°03'0 0.0
2019-Oct-10 04:57N 51°49' E 004°03'0 0.0
2019-Oct-10 04:30N 51°49' E 004°03'0 0.0
2019-Oct-10 04:00N 51°49' E 004°03'0 0.0
2019-Oct-10 03:30N 51°49' E 004°03'0 0.0
2019-Oct-10 02:57N 51°49' E 004°03'0 0.0
2019-Oct-10 02:30N 51°49' E 004°03'0 0.0
2019-Oct-10 01:57N 51°49' E 004°03'0 0.0
2019-Oct-10 01:30N 51°49' E 004°03'0 0.0
2019-Oct-10 01:00N 51°49' E 004°03'0 0.0
2019-Oct-10 00:30N 51°49' E 004°03'0 0.0
2019-Oct-10 00:00N 51°49' E 004°03'0 0.0
2019-Oct-09 23:27N 51°49' E 004°03'0 0.0
2019-Oct-09 23:00N 51°49' E 004°03'0 0.0
2019-Oct-09 22:30N 51°49' E 004°03'0 0.0
2019-Oct-09 22:00N 51°49' E 004°03'0 0.0
2019-Oct-09 21:30N 51°49' E 004°03'0 0.0
2019-Oct-09 21:00N 51°49' E 004°03'0 0.0
2019-Oct-09 20:27N 51°49' E 004°03'0 0.0
2019-Oct-09 20:00N 51°49' E 004°03'0 0.0
2019-Oct-09 19:30N 51°49' E 004°03'0 0.0
2019-Oct-09 19:00N 51°49' E 004°03'0 0.0
2019-Oct-09 18:30N 51°49' E 004°03'0 0.0
2019-Oct-09 17:51N 51°49' E 004°03'0 0.0
2019-Oct-09 17:27N 51°49' E 004°03'0 0.0
2019-Oct-09 17:00N 51°49' E 004°03'0 0.0
2019-Oct-09 16:30N 51°49' E 004°03'0 0.0
2019-Oct-09 15:54N 51°49' E 004°03'0 0.0
2019-Oct-09 15:30N 51°49' E 004°03'0 0.0
2019-Oct-09 15:00N 51°49' E 004°03'0 0.0
2019-Oct-09 14:15N 51°49' E 004°03'0 0.0
2019-Oct-09 13:54N 51°49' E 004°03'0 0.0
2019-Oct-09 13:30N 51°49' E 004°03'0 0.0
2019-Oct-09 13:00N 51°49' E 004°03'0 0.0
2019-Oct-09 12:30N 51°49' E 004°03'0 0.0
2019-Oct-09 12:00N 51°49' E 004°03'0 0.0
2019-Oct-09 11:24N 51°49' E 004°03'0 0.0
2019-Oct-09 11:00N 51°49' E 004°03'0 0.0
2019-Oct-09 10:30N 51°49' E 004°03'0 0.0
2019-Oct-09 09:42N 51°49' E 004°03'0 0.0
2019-Oct-09 09:30N 51°49' E 004°03'0 0.0
2019-Oct-09 09:00N 51°49' E 004°03'0 0.0
2019-Oct-09 08:30N 51°49' E 004°03'0 0.0
2019-Oct-09 08:00N 51°49' E 004°03'0 0.0
2019-Oct-09 07:30N 51°49' E 004°03'0 0.0
2019-Oct-09 06:27N 51°49' E 004°03'0 0.0
2019-Oct-09 05:48N 51°49' E 004°03'0 0.0
2019-Oct-09 05:27N 51°49' E 004°03'0 0.0
2019-Oct-09 05:00N 51°49' E 004°03'0 0.0
2019-Oct-09 04:27N 51°49' E 004°03'0 0.0
2019-Oct-09 04:00N 51°49' E 004°03'0 0.0
2019-Oct-09 03:30N 51°49' E 004°03'0 0.0
2019-Oct-09 03:00N 51°49' E 004°03'0 0.0
2019-Oct-09 02:30N 51°49' E 004°03'0 0.0
2019-Oct-09 02:00N 51°49' E 004°03'0 0.0
2019-Oct-09 01:30N 51°49' E 004°03'0 0.0
2019-Oct-09 01:00N 51°49' E 004°03'0 0.0
2019-Oct-09 00:30N 51°49' E 004°03'0 0.0
2019-Oct-08 23:57N 51°49' E 004°03'0 0.0
2019-Oct-08 23:24N 51°49' E 004°03'0 0.0
2019-Oct-08 23:00N 51°49' E 004°03'0 0.0
2019-Oct-08 22:30N 51°49' E 004°03'0 0.0
2019-Oct-08 21:57N 51°49' E 004°03'0 0.0
2019-Oct-08 21:30N 51°49' E 004°03'0 0.0
2019-Oct-08 21:00N 51°49' E 004°03'0 0.0
2019-Oct-08 20:24N 51°49' E 004°03'0 0.0
2019-Oct-08 20:00N 51°49' E 004°03'0 0.0
2019-Oct-08 19:30N 51°49' E 004°03'0 0.0
2019-Oct-08 19:00N 51°49' E 004°03'0 0.0
2019-Oct-08 18:27N 51°49' E 004°03'0 0.0
2019-Oct-08 17:51N 51°49' E 004°03'0 0.0
2019-Oct-08 17:30N 51°49' E 004°03'0 0.0
2019-Oct-08 17:00N 51°49' E 004°03'0 0.0
2019-Oct-08 16:30N 51°49' E 004°03'0 0.0
2019-Oct-08 16:00N 51°49' E 004°03'0 0.0
2019-Oct-08 15:30N 51°49' E 004°03'0 0.0
2019-Oct-08 15:00N 51°49' E 004°03'0 0.0
2019-Oct-08 14:30N 51°49' E 004°03'0 0.0
2019-Oct-08 13:51N 51°49' E 004°03'0 0.0
2019-Oct-08 13:30N 51°49' E 004°03'0 0.0
2019-Oct-08 13:00N 51°49' E 004°03'0 0.0
2019-Oct-08 12:30N 51°49' E 004°03'0 0.0
2019-Oct-08 11:54N 51°49' E 004°03'0 0.0
2019-Oct-08 11:27N 51°49' E 004°03'0 0.0
2019-Oct-08 11:00N 51°49' E 004°03'0 0.0
2019-Oct-08 10:30N 51°49' E 004°03'0 0.0
2019-Oct-08 09:57N 51°49' E 004°03'0 0.0
2019-Oct-08 09:27N 51°49' E 004°03'0 0.0
2019-Oct-08 09:00N 51°49' E 004°03'0 0.0
2019-Oct-08 08:30N 51°49' E 004°03'0 0.0
2019-Oct-08 07:57N 51°49' E 004°03'0 0.0
2019-Oct-08 07:24N 51°49' E 004°03'0 0.0
2019-Oct-08 07:00N 51°49' E 004°03'0 0.0
2019-Oct-08 06:30N 51°49' E 004°03'0 0.0
2019-Oct-08 06:00N 51°49' E 004°03'0 0.0
2019-Oct-08 05:18N 51°49' E 004°03'0 0.0
2019-Oct-08 05:00N 51°49' E 004°03'0 0.0
2019-Oct-08 04:30N 51°49' E 004°03'0 0.0
2019-Oct-08 03:57N 51°49' E 004°03'0 0.0
2019-Oct-08 03:30N 51°49' E 004°03'0 0.0
2019-Oct-08 03:00N 51°49' E 004°03'0 0.0
2019-Oct-08 02:21N 51°49' E 004°03'0 0.0
2019-Oct-08 02:00N 51°49' E 004°03'0 0.0
2019-Oct-08 01:18N 51°49' E 004°03'0 0.0
2019-Oct-08 01:00N 51°49' E 004°03'0 0.0
2019-Oct-08 00:30N 51°49' E 004°03'0 0.0
2019-Oct-08 00:00N 51°49' E 004°03'0 0.0
2019-Oct-07 23:27N 51°49' E 004°03'0 0.0
2019-Oct-07 22:42N 51°49' E 004°03'0 0.0
2019-Oct-07 22:30N 51°49' E 004°03'0 0.0
2019-Oct-07 22:00N 51°49' E 004°03'0 0.0
2019-Oct-07 21:27N 51°49' E 004°03'0 0.0
2019-Oct-07 20:57N 51°49' E 004°03'0 0.0
2019-Oct-07 20:27N 51°49' E 004°03'0 0.0
2019-Oct-07 20:00N 51°49' E 004°03'0 0.0
2019-Oct-07 19:24N 51°49' E 004°03'0 0.0
2019-Oct-07 19:00N 51°49' E 004°03'0 0.0
2019-Oct-07 18:21N 51°49' E 004°03'0 0.0
2019-Oct-07 17:57N 51°49' E 004°03'0 0.0
2019-Oct-07 17:27N 51°49' E 004°03'0 0.0
2019-Oct-07 16:54N 51°49' E 004°03'0 0.0
2019-Oct-07 16:30N 51°49' E 004°03'  

Dump ship's entire track history